sensor_id;sensor_type;location;lat;lon;timestamp;pressure;altitude;pressure_sealevel;temperature;humidity
15308;BME280;7755;52.208;6.964;2023-04-01T00:02:54;98806.00;;;10.43;100.00
15308;BME280;7755;52.208;6.964;2023-04-01T00:06:57;98813.06;;;10.44;100.00
15308;BME280;7755;52.208;6.964;2023-04-01T00:11:02;98810.91;;;10.41;100.00
15308;BME280;7755;52.208;6.964;2023-04-01T00:15:06;98793.56;;;10.37;100.00
15308;BME280;7755;52.208;6.964;2023-04-01T00:19:09;98804.16;;;10.38;100.00
15308;BME280;7755;52.208;6.964;2023-04-01T00:23:12;98797.34;;;10.36;100.00
15308;BME280;7755;52.208;6.964;2023-04-01T00:27:17;98802.28;;;10.34;100.00
15308;BME280;7755;52.208;6.964;2023-04-01T00:31:20;98803.97;;;10.30;100.00
15308;BME280;7755;52.208;6.964;2023-04-01T00:35:22;98793.91;;;10.30;100.00
15308;BME280;7755;52.208;6.964;2023-04-01T00:39:28;98798.22;;;10.31;100.00
15308;BME280;7755;52.208;6.964;2023-04-01T00:43:33;98796.06;;;10.28;100.00
15308;BME280;7755;52.208;6.964;2023-04-01T00:47:36;98787.69;;;10.25;100.00
15308;BME280;7755;52.208;6.964;2023-04-01T00:51:41;98792.25;;;10.29;100.00
15308;BME280;7755;52.208;6.964;2023-04-01T00:55:49;98790.91;;;10.32;100.00
15308;BME280;7755;52.208;6.964;2023-04-01T00:59:55;98786.81;;;10.29;100.00
15308;BME280;7755;52.208;6.964;2023-04-01T01:03:58;98787.41;;;10.26;100.00
15308;BME280;7755;52.208;6.964;2023-04-01T01:08:04;98779.25;;;10.26;100.00
15308;BME280;7755;52.208;6.964;2023-04-01T01:12:13;98784.19;;;10.24;100.00
15308;BME280;7755;52.208;6.964;2023-04-01T01:16:24;98780.34;;;10.25;100.00
15308;BME280;7755;52.208;6.964;2023-04-01T01:21:06;98782.78;;;10.27;100.00
15308;BME280;7755;52.208;6.964;2023-04-01T01:25:29;98781.38;;;10.29;100.00
15308;BME280;7755;52.208;6.964;2023-04-01T01:34:22;98777.34;;;10.22;100.00
15308;BME280;7755;52.208;6.964;2023-04-01T01:38:31;98771.41;;;10.25;100.00
15308;BME280;7755;52.208;6.964;2023-04-01T01:42:41;98773.56;;;10.23;100.00
15308;BME280;7755;52.208;6.964;2023-04-01T01:46:47;98769.22;;;10.22;100.00
15308;BME280;7755;52.208;6.964;2023-04-01T01:50:51;98770.34;;;10.16;100.00
15308;BME280;7755;52.208;6.964;2023-04-01T01:54:57;98769.50;;;10.20;100.00
15308;BME280;7755;52.208;6.964;2023-04-01T01:59:10;98772.81;;;10.17;100.00
15308;BME280;7755;52.208;6.964;2023-04-01T02:03:15;98769.84;;;10.13;100.00
15308;BME280;7755;52.208;6.964;2023-04-01T02:07:22;98774.47;;;10.13;100.00
15308;BME280;7755;52.208;6.964;2023-04-01T02:11:30;98779.09;;;10.12;100.00
15308;BME280;7755;52.208;6.964;2023-04-01T02:15:37;98779.59;;;10.15;100.00
15308;BME280;7755;52.208;6.964;2023-04-01T02:19:48;98792.03;;;10.21;100.00
15308;BME280;7755;52.208;6.964;2023-04-01T02:23:53;98789.31;;;10.21;100.00
15308;BME280;7755;52.208;6.964;2023-04-01T02:27:58;98783.66;;;10.17;100.00
15308;BME280;7755;52.208;6.964;2023-04-01T02:32:03;98793.44;;;10.18;100.00
15308;BME280;7755;52.208;6.964;2023-04-01T02:36:11;98781.75;;;10.18;100.00
15308;BME280;7755;52.208;6.964;2023-04-01T02:40:16;98784.47;;;10.18;100.00
15308;BME280;7755;52.208;6.964;2023-04-01T02:44:20;98789.03;;;10.22;100.00
15308;BME280;7755;52.208;6.964;2023-04-01T02:48:23;98791.53;;;10.24;100.00
15308;BME280;7755;52.208;6.964;2023-04-01T02:52:26;98794.16;;;10.29;100.00
15308;BME280;7755;52.208;6.964;2023-04-01T02:56:32;98793.94;;;10.25;100.00
15308;BME280;7755;52.208;6.964;2023-04-01T03:00:36;98792.84;;;10.26;100.00
15308;BME280;7755;52.208;6.964;2023-04-01T03:04:39;98801.78;;;10.27;100.00
15308;BME280;7755;52.208;6.964;2023-04-01T03:08:42;98796.66;;;10.25;100.00
15308;BME280;7755;52.208;6.964;2023-04-01T03:12:45;98801.78;;;10.27;100.00
15308;BME280;7755;52.208;6.964;2023-04-01T03:16:49;98812.09;;;10.30;100.00
15308;BME280;7755;52.208;6.964;2023-04-01T03:20:52;98800.41;;;10.29;100.00
15308;BME280;7755;52.208;6.964;2023-04-01T03:24:55;98803.97;;;10.30;100.00
15308;BME280;7755;52.208;6.964;2023-04-01T03:28:58;98810.41;;;10.34;100.00
15308;BME280;7755;52.208;6.964;2023-04-01T03:33:02;98818.06;;;10.32;100.00
15308;BME280;7755;52.208;6.964;2023-04-01T03:37:06;98825.91;;;10.33;100.00
15308;BME280;7755;52.208;6.964;2023-04-01T03:41:12;98818.56;;;10.34;100.00
15308;BME280;7755;52.208;6.964;2023-04-01T03:45:15;98824.25;;;10.37;100.00
15308;BME280;7755;52.208;6.964;2023-04-01T03:49:19;98822.38;;;10.33;100.00
15308;BME280;7755;52.208;6.964;2023-04-01T03:53:22;98827.00;;;10.32;100.00
15308;BME280;7755;52.208;6.964;2023-04-01T03:57:26;98829.72;;;10.32;100.00
15308;BME280;7755;52.208;6.964;2023-04-01T04:01:34;98825.91;;;10.33;100.00
15308;BME280;7755;52.208;6.964;2023-04-01T04:05:46;98842.72;;;10.35;100.00
15308;BME280;7755;52.208;6.964;2023-04-01T04:09:50;98833.25;;;10.33;100.00
15308;BME280;7755;52.208;6.964;2023-04-01T04:13:53;98846.03;;;10.32;100.00
15308;BME280;7755;52.208;6.964;2023-04-01T04:17:57;98851.47;;;10.32;100.00
15308;BME280;7755;52.208;6.964;2023-04-01T04:22:02;98852.28;;;10.33;100.00
15308;BME280;7755;52.208;6.964;2023-04-01T04:26:06;98848.75;;;10.32;100.00
15308;BME280;7755;52.208;6.964;2023-04-01T04:30:10;98856.59;;;10.34;100.00
15308;BME280;7755;52.208;6.964;2023-04-01T04:34:14;98849.25;;;10.34;100.00
15308;BME280;7755;52.208;6.964;2023-04-01T04:38:18;98866.66;;;10.33;100.00
15308;BME280;7755;52.208;6.964;2023-04-01T04:42:21;98861.47;;;10.37;100.00
15308;BME280;7755;52.208;6.964;2023-04-01T04:46:28;98863.09;;;10.38;100.00
15308;BME280;7755;52.208;6.964;2023-04-01T04:50:42;98864.72;;;10.39;100.00
15308;BME280;7755;52.208;6.964;2023-04-01T04:54:46;98869.06;;;10.40;100.00
15308;BME280;7755;52.208;6.964;2023-04-01T04:58:49;98878.81;;;10.41;100.00
15308;BME280;7755;52.208;6.964;2023-04-01T05:02:56;98887.00;;;10.36;100.00
15308;BME280;7755;52.208;6.964;2023-04-01T05:06:59;98878.81;;;10.41;100.00
15308;BME280;7755;52.208;6.964;2023-04-01T05:11:07;98889.41;;;10.43;100.00
15308;BME280;7755;52.208;6.964;2023-04-01T05:15:15;98890.75;;;10.45;100.00
15308;BME280;7755;52.208;6.964;2023-04-01T05:19:18;98900.53;;;10.46;100.00
15308;BME280;7755;52.208;6.964;2023-04-01T05:23:22;98892.13;;;10.43;100.00
15308;BME280;7755;52.208;6.964;2023-04-01T05:27:26;98898.91;;;10.45;100.00
15308;BME280;7755;52.208;6.964;2023-04-01T05:31:29;98905.94;;;10.46;100.00
15308;BME280;7755;52.208;6.964;2023-04-01T05:35:32;98904.56;;;10.49;100.00
15308;BME280;7755;52.208;6.964;2023-04-01T05:39:36;98913.28;;;10.46;100.00
15308;BME280;7755;52.208;6.964;2023-04-01T05:43:41;98915.72;;;10.47;100.00
15308;BME280;7755;52.208;6.964;2023-04-01T05:48:05;98925.25;;;10.45;100.00
15308;BME280;7755;52.208;6.964;2023-04-01T05:52:13;98932.53;;;10.49;100.00
15308;BME280;7755;52.208;6.964;2023-04-01T05:56:16;98930.88;;;10.53;100.00
15308;BME280;7755;52.208;6.964;2023-04-01T06:00:24;98924.66;;;10.53;100.00
15308;BME280;7755;52.208;6.964;2023-04-01T06:04:28;98921.66;;;10.49;100.00
15308;BME280;7755;52.208;6.964;2023-04-01T06:08:34;98938.78;;;10.50;100.00
15308;BME280;7755;52.208;6.964;2023-04-01T06:12:50;98943.19;;;10.46;100.00
15308;BME280;7755;52.208;6.964;2023-04-01T06:17:08;98948.84;;;10.49;100.00
15308;BME280;7755;52.208;6.964;2023-04-01T06:26:08;98950.97;;;10.57;100.00
15308;BME280;7755;52.208;6.964;2023-04-01T06:30:29;98956.41;;;10.57;100.00
15308;BME280;7755;52.208;6.964;2023-04-01T06:34:50;98959.88;;;10.63;100.00
15308;BME280;7755;52.208;6.964;2023-04-01T06:39:12;98958.81;;;10.64;100.00
15308;BME280;7755;52.208;6.964;2023-04-01T06:43:23;98954.94;;;10.70;100.00
15308;BME280;7755;52.208;6.964;2023-04-01T06:47:57;98960.59;;;10.79;100.00
15308;BME280;7755;52.208;6.964;2023-04-01T06:52:27;98968.72;;;10.84;100.00
15308;BME280;7755;52.208;6.964;2023-04-01T06:57:00;98973.78;;;10.90;100.00
15308;BME280;7755;52.208;6.964;2023-04-01T07:01:08;98968.09;;;10.92;100.00
15308;BME280;7755;52.208;6.964;2023-04-01T07:05:14;98986.03;;;10.93;100.00
15308;BME280;7755;52.208;6.964;2023-04-01T07:09:21;98983.53;;;10.97;100.00
15308;BME280;7755;52.208;6.964;2023-04-01T07:13:55;98986.50;;;11.00;100.00
15308;BME280;7755;52.208;6.964;2023-04-01T07:18:05;98994.63;;;11.05;100.00
15308;BME280;7755;52.208;6.964;2023-04-01T07:22:20;99002.72;;;11.10;100.00
15308;BME280;7755;52.208;6.964;2023-04-01T07:26:37;99004.88;;;11.13;100.00
15308;BME280;7755;52.208;6.964;2023-04-01T07:30:52;99006.22;;;11.16;100.00
15308;BME280;7755;52.208;6.964;2023-04-01T07:35:09;99014.91;;;11.18;100.00
15308;BME280;7755;52.208;6.964;2023-04-01T07:39:23;99020.13;;;11.09;100.00
15308;BME280;7755;52.208;6.964;2023-04-01T07:44:00;99022.53;;;11.16;100.00
15308;BME280;7755;52.208;6.964;2023-04-01T07:48:15;99028.75;;;11.21;100.00
15308;BME280;7755;52.208;6.964;2023-04-01T07:52:29;99035.75;;;11.28;100.00
15308;BME280;7755;52.208;6.964;2023-04-01T07:56:45;99040.34;;;11.32;100.00
15308;BME280;7755;52.208;6.964;2023-04-01T08:01:09;99048.22;;;11.34;100.00
15308;BME280;7755;52.208;6.964;2023-04-01T08:05:25;99049.84;;;11.35;100.00
15308;BME280;7755;52.208;6.964;2023-04-01T08:09:36;99056.13;;;11.30;100.00
15308;BME280;7755;52.208;6.964;2023-04-01T08:14:07;99068.38;;;11.33;100.00
15308;BME280;7755;52.208;6.964;2023-04-01T08:18:42;99071.59;;;11.35;100.00
15308;BME280;7755;52.208;6.964;2023-04-01T08:22:51;99068.25;;;11.43;100.00
15308;BME280;7755;52.208;6.964;2023-04-01T08:27:06;99071.72;;;11.54;100.00
15308;BME280;7755;52.208;6.964;2023-04-01T08:31:17;99076.53;;;11.62;100.00
15308;BME280;7755;52.208;6.964;2023-04-01T08:35:28;99087.34;;;11.72;100.00
15308;BME280;7755;52.208;6.964;2023-04-01T08:39:37;99086.38;;;11.87;100.00
15308;BME280;7755;52.208;6.964;2023-04-01T08:44:08;99094.38;;;12.02;100.00
15308;BME280;7755;52.208;6.964;2023-04-01T08:48:34;99097.09;;;12.02;100.00
15308;BME280;7755;52.208;6.964;2023-04-01T08:52:53;99099.69;;;12.12;100.00
15308;BME280;7755;52.208;6.964;2023-04-01T08:57:07;99105.22;;;12.31;100.00
15308;BME280;7755;52.208;6.964;2023-04-01T09:01:43;99109.75;;;12.41;100.00
15308;BME280;7755;52.208;6.964;2023-04-01T09:06:34;99114.38;;;12.59;100.00
15308;BME280;7755;52.208;6.964;2023-04-01T09:11:04;99124.44;;;12.64;100.00
15308;BME280;7755;52.208;6.964;2023-04-01T09:15:42;99135.72;;;12.76;100.00
15308;BME280;7755;52.208;6.964;2023-04-01T09:20:07;99138.50;;;12.71;100.00
15308;BME280;7755;52.208;6.964;2023-04-01T09:24:46;99137.50;;;12.85;100.00
15308;BME280;7755;52.208;6.964;2023-04-01T09:28:59;99145.66;;;12.85;100.00
15308;BME280;7755;52.208;6.964;2023-04-01T09:37:51;99156.59;;;13.04;100.00
15308;BME280;7755;52.208;6.964;2023-04-01T09:42:23;99164.41;;;13.11;100.00
15308;BME280;7755;52.208;6.964;2023-04-01T09:46:59;99166.03;;;13.12;100.00
15308;BME280;7755;52.208;6.964;2023-04-01T09:51:20;99168.75;;;13.12;100.00
15308;BME280;7755;52.208;6.964;2023-04-01T09:55:56;99173.41;;;13.11;100.00
15308;BME280;7755;52.208;6.964;2023-04-01T10:10:10;99184.84;;;13.13;100.00
15308;BME280;7755;52.208;6.964;2023-04-01T10:14:41;99188.78;;;13.26;100.00
15308;BME280;7755;52.208;6.964;2023-04-01T10:19:00;99195.22;;;13.35;100.00
15308;BME280;7755;52.208;6.964;2023-04-01T10:23:32;99195.06;;;13.46;100.00
15308;BME280;7755;52.208;6.964;2023-04-01T10:28:06;99208.25;;;13.57;100.00
15308;BME280;7755;52.208;6.964;2023-04-01T10:37:40;99216.22;;;13.54;100.00
15308;BME280;7755;52.208;6.964;2023-04-01T10:42:10;99218.44;;;13.71;100.00
15308;BME280;7755;52.208;6.964;2023-04-01T10:47:18;99212.50;;;13.82;100.00
15308;BME280;7755;52.208;6.964;2023-04-01T10:51:59;99218.41;;;13.89;100.00
15308;BME280;7755;52.208;6.964;2023-04-01T10:56:39;99217.78;;;13.92;100.00
15308;BME280;7755;52.208;6.964;2023-04-01T11:01:48;99230.91;;;13.77;100.00
15308;BME280;7755;52.208;6.964;2023-04-01T11:25:39;99255.69;;;13.61;100.00
15308;BME280;7755;52.208;6.964;2023-04-01T11:30:16;99269.22;;;13.53;100.00
15308;BME280;7755;52.208;6.964;2023-04-01T11:34:35;99268.81;;;13.41;100.00
15308;BME280;7755;52.208;6.964;2023-04-01T11:38:53;99275.69;;;13.38;100.00
15308;BME280;7755;52.208;6.964;2023-04-01T11:43:24;99275.19;;;13.36;100.00
15308;BME280;7755;52.208;6.964;2023-04-01T11:48:11;99279.25;;;13.38;100.00
15308;BME280;7755;52.208;6.964;2023-04-01T11:52:23;99288.94;;;13.50;100.00
15308;BME280;7755;52.208;6.964;2023-04-01T11:56:46;99295.94;;;13.56;100.00
15308;BME280;7755;52.208;6.964;2023-04-01T12:01:05;99304.72;;;13.72;100.00
15308;BME280;7755;52.208;6.964;2023-04-01T12:05:31;99308.75;;;13.93;100.00
15308;BME280;7755;52.208;6.964;2023-04-01T12:09:42;99320.50;;;14.12;100.00
15308;BME280;7755;52.208;6.964;2023-04-01T12:13:54;99321.28;;;14.13;100.00
15308;BME280;7755;52.208;6.964;2023-04-01T12:18:05;99324.53;;;14.15;100.00
15308;BME280;7755;52.208;6.964;2023-04-01T12:22:28;99330.59;;;14.12;100.00
15308;BME280;7755;52.208;6.964;2023-04-01T12:26:47;99334.16;;;13.93;100.00
15308;BME280;7755;52.208;6.964;2023-04-01T12:31:05;99345.09;;;13.75;100.00
15308;BME280;7755;52.208;6.964;2023-04-01T12:35:21;99358.28;;;13.68;100.00
15308;BME280;7755;52.208;6.964;2023-04-01T12:39:37;99360.41;;;13.76;100.00
15308;BME280;7755;52.208;6.964;2023-04-01T12:44:04;99361.47;;;13.75;100.00
15308;BME280;7755;52.208;6.964;2023-04-01T12:53:06;99377.66;;;13.71;100.00
15308;BME280;7755;52.208;6.964;2023-04-01T12:57:28;99372.13;;;13.76;100.00
15308;BME280;7755;52.208;6.964;2023-04-01T13:02:01;99381.28;;;13.85;100.00
15308;BME280;7755;52.208;6.964;2023-04-01T13:06:22;99385.34;;;13.88;100.00
15308;BME280;7755;52.208;6.964;2023-04-01T13:10:44;99399.34;;;13.81;100.00
15308;BME280;7755;52.208;6.964;2023-04-01T13:19:38;99407.75;;;13.66;100.00
15308;BME280;7755;52.208;6.964;2023-04-01T13:24:03;99423.69;;;13.59;100.00
15308;BME280;7755;52.208;6.964;2023-04-01T13:28:15;99430.31;;;13.53;100.00
15308;BME280;7755;52.208;6.964;2023-04-01T13:32:30;99426.81;;;13.47;100.00
15308;BME280;7755;52.208;6.964;2023-04-01T13:36:56;99434.09;;;13.33;100.00
15308;BME280;7755;52.208;6.964;2023-04-01T13:41:09;99437.94;;;13.32;100.00
15308;BME280;7755;52.208;6.964;2023-04-01T13:45:20;99445.44;;;13.21;100.00
15308;BME280;7755;52.208;6.964;2023-04-01T13:49:42;99451.22;;;13.09;100.00
15308;BME280;7755;52.208;6.964;2023-04-01T13:54:01;99462.22;;;12.99;100.00
15308;BME280;7755;52.208;6.964;2023-04-01T13:58:24;99458.47;;;12.95;100.00
15308;BME280;7755;52.208;6.964;2023-04-01T14:02:50;99468.91;;;12.88;100.00
15308;BME280;7755;52.208;6.964;2023-04-01T14:07:04;99478.84;;;12.74;100.00
15308;BME280;7755;52.208;6.964;2023-04-01T14:11:15;99491.41;;;12.70;100.00
15308;BME280;7755;52.208;6.964;2023-04-01T14:15:36;99489.94;;;12.82;100.00
15308;BME280;7755;52.208;6.964;2023-04-01T14:20:06;99496.09;;;12.93;100.00
15308;BME280;7755;52.208;6.964;2023-04-01T14:29:04;99504.44;;;13.07;100.00
15308;BME280;7755;52.208;6.964;2023-04-01T14:33:26;99509.28;;;13.20;100.00
15308;BME280;7755;52.208;6.964;2023-04-01T14:37:48;99522.31;;;13.28;100.00
15308;BME280;7755;52.208;6.964;2023-04-01T14:42:08;99528.50;;;13.39;100.00
15308;BME280;7755;52.208;6.964;2023-04-01T14:46:43;99535.69;;;13.30;100.00
15308;BME280;7755;52.208;6.964;2023-04-01T14:50:53;99542.44;;;13.03;100.00
15308;BME280;7755;52.208;6.964;2023-04-01T14:55:00;99547.47;;;12.86;100.00
15308;BME280;7755;52.208;6.964;2023-04-01T14:59:09;99558.66;;;12.84;100.00
15308;BME280;7755;52.208;6.964;2023-04-01T15:03:18;99559.44;;;12.90;100.00
15308;BME280;7755;52.208;6.964;2023-04-01T15:07:55;99566.53;;;12.91;100.00
15308;BME280;7755;52.208;6.964;2023-04-01T15:12:10;99582.09;;;12.85;100.00
15308;BME280;7755;52.208;6.964;2023-04-01T15:16:23;99584.84;;;12.85;100.00
15308;BME280;7755;52.208;6.964;2023-04-01T15:20:56;99588.69;;;12.79;100.00
15308;BME280;7755;52.208;6.964;2023-04-01T15:25:23;99607.28;;;12.72;100.00
15308;BME280;7755;52.208;6.964;2023-04-01T15:29:41;99605.13;;;12.69;100.00
15308;BME280;7755;52.208;6.964;2023-04-01T15:38:24;99630.91;;;12.38;100.00
15308;BME280;7755;52.208;6.964;2023-04-01T15:42:44;99644.31;;;12.19;100.00
15308;BME280;7755;52.208;6.964;2023-04-01T15:46:53;99647.38;;;12.07;100.00
15308;BME280;7755;52.208;6.964;2023-04-01T15:51:08;99660.19;;;11.96;100.00
15308;BME280;7755;52.208;6.964;2023-04-01T15:55:19;99665.66;;;11.81;100.00
15308;BME280;7755;52.208;6.964;2023-04-01T15:59:44;99675.44;;;11.72;100.00
15308;BME280;7755;52.208;6.964;2023-04-01T16:03:57;99686.06;;;11.68;100.00
15308;BME280;7755;52.208;6.964;2023-04-01T16:08:23;99700.75;;;11.57;100.00
15308;BME280;7755;52.208;6.964;2023-04-01T16:12:41;99710.53;;;11.48;100.00
15308;BME280;7755;52.208;6.964;2023-04-01T16:17:05;99720.34;;;11.39;100.00
15308;BME280;7755;52.208;6.964;2023-04-01T16:21:19;99732.81;;;11.30;100.00
15308;BME280;7755;52.208;6.964;2023-04-01T16:25:32;99733.63;;;11.30;100.00
15308;BME280;7755;52.208;6.964;2023-04-01T16:29:42;99741.22;;;11.13;100.00
15308;BME280;7755;52.208;6.964;2023-04-01T16:33:51;99753.44;;;11.00;100.00
15308;BME280;7755;52.208;6.964;2023-04-01T16:38:05;99755.84;;;10.97;100.00
15308;BME280;7755;52.208;6.964;2023-04-01T16:42:19;99780.84;;;10.88;100.00
15308;BME280;7755;52.208;6.964;2023-04-01T16:46:31;99782.16;;;10.81;100.00
15308;BME280;7755;52.208;6.964;2023-04-01T16:50:48;99798.72;;;10.74;100.00
15308;BME280;7755;52.208;6.964;2023-04-01T16:54:56;99799.22;;;10.66;100.00
15308;BME280;7755;52.208;6.964;2023-04-01T16:59:04;99821.25;;;10.64;100.00
15308;BME280;7755;52.208;6.964;2023-04-01T17:03:13;99825.28;;;10.62;100.00
15308;BME280;7755;52.208;6.964;2023-04-01T17:07:24;99826.88;;;10.53;100.00
15308;BME280;7755;52.208;6.964;2023-04-01T17:11:37;99845.81;;;10.43;100.00
15308;BME280;7755;52.208;6.964;2023-04-01T17:15:46;99852.31;;;10.36;100.00
15308;BME280;7755;52.208;6.964;2023-04-01T17:19:59;99857.13;;;10.29;100.00
15308;BME280;7755;52.208;6.964;2023-04-01T17:24:10;99872.56;;;10.24;100.00
15308;BME280;7755;52.208;6.964;2023-04-01T17:28:33;99878.47;;;10.21;100.00
15308;BME280;7755;52.208;6.964;2023-04-01T17:32:51;99897.03;;;10.24;100.00
15308;BME280;7755;52.208;6.964;2023-04-01T17:37:13;99899.66;;;10.19;100.00
15308;BME280;7755;52.208;6.964;2023-04-01T17:41:31;99910.41;;;10.08;100.00
15308;BME280;7755;52.208;6.964;2023-04-01T17:45:45;99921.47;;;10.02;100.00
15308;BME280;7755;52.208;6.964;2023-04-01T17:49:54;99936.88;;;9.91;100.00
15308;BME280;7755;52.208;6.964;2023-04-01T17:54:11;99939.16;;;9.77;100.00
15308;BME280;7755;52.208;6.964;2023-04-01T17:58:20;99952.28;;;9.85;100.00
15308;BME280;7755;52.208;6.964;2023-04-01T18:02:30;99963.41;;;9.84;100.00
15308;BME280;7755;52.208;6.964;2023-04-01T18:06:45;99987.44;;;9.75;100.00
15308;BME280;7755;52.208;6.964;2023-04-01T18:11:00;99995.72;;;9.64;100.00
15308;BME280;7755;52.208;6.964;2023-04-01T18:15:15;100012.19;;;9.57;100.00
15308;BME280;7755;52.208;6.964;2023-04-01T18:19:29;100009.47;;;9.57;100.00
15308;BME280;7755;52.208;6.964;2023-04-01T18:23:38;100030.91;;;9.58;100.00
15308;BME280;7755;52.208;6.964;2023-04-01T18:28:15;100047.63;;;9.50;100.00
15308;BME280;7755;52.208;6.964;2023-04-01T18:32:29;100047.91;;;9.32;100.00
15308;BME280;7755;52.208;6.964;2023-04-01T18:36:40;100066.75;;;9.22;100.00
15308;BME280;7755;52.208;6.964;2023-04-01T18:40:49;100081.13;;;9.22;100.00
15308;BME280;7755;52.208;6.964;2023-04-01T18:44:57;100078.97;;;9.08;100.00
15308;BME280;7755;52.208;6.964;2023-04-01T18:49:06;100094.91;;;9.04;100.00
15308;BME280;7755;52.208;6.964;2023-04-01T18:53:22;100113.66;;;9.06;100.00
15308;BME280;7755;52.208;6.964;2023-04-01T18:57:27;100119.81;;;9.01;100.00
15308;BME280;7755;52.208;6.964;2023-04-01T19:01:47;100141.16;;;8.97;100.00
15308;BME280;7755;52.208;6.964;2023-04-01T19:05:55;100145.53;;;8.98;100.00
15308;BME280;7755;52.208;6.964;2023-04-01T19:10:13;100150.69;;;9.00;100.00
15308;BME280;7755;52.208;6.964;2023-04-01T19:14:23;100165.00;;;8.95;100.00
15308;BME280;7755;52.208;6.964;2023-04-01T19:27:49;100191.38;;;9.00;100.00
15308;BME280;7755;52.208;6.964;2023-04-01T19:31:59;100201.22;;;8.89;100.00
15308;BME280;7755;52.208;6.964;2023-04-01T19:36:11;100207.84;;;8.82;100.00
15308;BME280;7755;52.208;6.964;2023-04-01T19:40:31;100221.19;;;8.71;100.00
15308;BME280;7755;52.208;6.964;2023-04-01T19:44:49;100219.34;;;8.60;100.00
15308;BME280;7755;52.208;6.964;2023-04-01T19:49:09;100227.34;;;8.55;100.00
15308;BME280;7755;52.208;6.964;2023-04-01T19:53:22;100236.06;;;8.57;100.00
15308;BME280;7755;52.208;6.964;2023-04-01T19:57:37;100257.97;;;8.56;100.00
15308;BME280;7755;52.208;6.964;2023-04-01T20:01:46;100258.22;;;8.54;100.00
15308;BME280;7755;52.208;6.964;2023-04-01T20:05:58;100278.03;;;8.43;100.00
15308;BME280;7755;52.208;6.964;2023-04-01T20:10:06;100282.13;;;8.34;100.00
15308;BME280;7755;52.208;6.964;2023-04-01T20:14:17;100287.28;;;8.24;100.00
15308;BME280;7755;52.208;6.964;2023-04-01T20:18:34;100297.91;;;8.13;100.00
15308;BME280;7755;52.208;6.964;2023-04-01T20:22:57;100314.84;;;8.09;100.00
15308;BME280;7755;52.208;6.964;2023-04-01T20:27:06;100326.72;;;8.08;100.00
15308;BME280;7755;52.208;6.964;2023-04-01T20:31:23;100335.19;;;8.00;100.00
15308;BME280;7755;52.208;6.964;2023-04-01T20:35:39;100346.44;;;7.85;100.00
15308;BME280;7755;52.208;6.964;2023-04-01T20:40:02;100357.41;;;7.90;100.00
15308;BME280;7755;52.208;6.964;2023-04-01T20:44:12;100370.94;;;7.90;100.00
15308;BME280;7755;52.208;6.964;2023-04-01T20:52:50;100383.16;;;7.81;100.00
15308;BME280;7755;52.208;6.964;2023-04-01T20:57:05;100391.63;;;7.84;100.00
15308;BME280;7755;52.208;6.964;2023-04-01T21:01:15;100396.53;;;7.76;100.00
15308;BME280;7755;52.208;6.964;2023-04-01T21:05:45;100408.28;;;7.70;100.00
15308;BME280;7755;52.208;6.964;2023-04-01T21:10:08;100422.41;;;7.72;100.00
15308;BME280;7755;52.208;6.964;2023-04-01T21:14:34;100427.69;;;7.66;100.00
15308;BME280;7755;52.208;6.964;2023-04-01T21:18:49;100439.09;;;7.69;100.00
15308;BME280;7755;52.208;6.964;2023-04-01T21:23:08;100448.94;;;7.63;100.00
15308;BME280;7755;52.208;6.964;2023-04-01T21:27:23;100470.00;;;7.61;100.00
15308;BME280;7755;52.208;6.964;2023-04-01T21:31:40;100471.97;;;7.54;100.00
15308;BME280;7755;52.208;6.964;2023-04-01T21:35:54;100487.16;;;7.55;100.00
15308;BME280;7755;52.208;6.964;2023-04-01T21:45:04;100500.22;;;7.39;100.00
15308;BME280;7755;52.208;6.964;2023-04-01T21:49:43;100520.72;;;7.29;100.00
15308;BME280;7755;52.208;6.964;2023-04-01T21:59:12;100531.34;;;7.24;100.00
15308;BME280;7755;52.208;6.964;2023-04-01T22:03:43;100549.38;;;7.11;100.00
15308;BME280;7755;52.208;6.964;2023-04-01T22:07:55;100562.84;;;7.18;100.00
15308;BME280;7755;52.208;6.964;2023-04-01T22:12:04;100567.28;;;7.31;100.00
15308;BME280;7755;52.208;6.964;2023-04-01T22:16:14;100573.50;;;7.31;100.00
15308;BME280;7755;52.208;6.964;2023-04-01T22:20:27;100580.84;;;7.24;100.00
15308;BME280;7755;52.208;6.964;2023-04-01T22:24:37;100590.91;;;7.17;100.00
15308;BME280;7755;52.208;6.964;2023-04-01T22:28:47;100601.56;;;7.12;100.00
15308;BME280;7755;52.208;6.964;2023-04-01T22:32:58;100609.88;;;7.10;100.00
15308;BME280;7755;52.208;6.964;2023-04-01T22:37:11;100613.03;;;7.07;100.00
15308;BME280;7755;52.208;6.964;2023-04-01T22:41:20;100613.53;;;6.98;100.00
15308;BME280;7755;52.208;6.964;2023-04-01T22:45:52;100624.84;;;6.81;100.00
15308;BME280;7755;52.208;6.964;2023-04-01T22:50:02;100625.25;;;6.85;100.00
15308;BME280;7755;52.208;6.964;2023-04-01T22:54:14;100635.25;;;6.84;100.00
15308;BME280;7755;52.208;6.964;2023-04-01T22:58:21;100643.41;;;6.78;100.00
15308;BME280;7755;52.208;6.964;2023-04-01T23:02:30;100653.78;;;6.74;100.00
15308;BME280;7755;52.208;6.964;2023-04-01T23:06:38;100659.41;;;6.73;100.00
15308;BME280;7755;52.208;6.964;2023-04-01T23:10:49;100666.47;;;6.74;100.00
15308;BME280;7755;52.208;6.964;2023-04-01T23:14:56;100677.91;;;6.69;100.00
15308;BME280;7755;52.208;6.964;2023-04-01T23:19:06;100672.56;;;6.63;100.00
15308;BME280;7755;52.208;6.964;2023-04-01T23:23:20;100692.53;;;6.55;100.00
15308;BME280;7755;52.208;6.964;2023-04-01T23:27:30;100698.38;;;6.52;100.00
15308;BME280;7755;52.208;6.964;2023-04-01T23:31:37;100704.81;;;6.51;100.00
15308;BME280;7755;52.208;6.964;2023-04-01T23:35:46;100719.59;;;6.42;100.00
15308;BME280;7755;52.208;6.964;2023-04-01T23:39:52;100730.16;;;6.43;100.00
15308;BME280;7755;52.208;6.964;2023-04-01T23:44:00;100725.84;;;6.29;100.00
15308;BME280;7755;52.208;6.964;2023-04-01T23:48:04;100742.91;;;6.23;100.00
15308;BME280;7755;52.208;6.964;2023-04-01T23:52:14;100739.59;;;6.14;100.00
15308;BME280;7755;52.208;6.964;2023-04-01T23:56:19;100759.75;;;6.18;100.00
